sensor_id;sensor_type;location;lat;lon;timestamp;temperature;humidity
66708;DHT22;53622;0.000;0.000;2022-12-18T00:02:12;20.00;44.00
66708;DHT22;53622;0.000;0.000;2022-12-18T00:04:41;20.00;44.00
66708;DHT22;53622;0.000;0.000;2022-12-18T00:07:10;20.00;44.00
66708;DHT22;53622;0.000;0.000;2022-12-18T00:09:40;20.00;44.00
66708;DHT22;53622;0.000;0.000;2022-12-18T00:12:09;19.90;44.00
66708;DHT22;53622;0.000;0.000;2022-12-18T00:14:46;20.00;44.00
66708;DHT22;53622;0.000;0.000;2022-12-18T00:17:16;20.00;44.00
66708;DHT22;53622;0.000;0.000;2022-12-18T00:19:45;19.90;44.00
66708;DHT22;53622;0.000;0.000;2022-12-18T00:22:14;19.90;44.00
66708;DHT22;53622;0.000;0.000;2022-12-18T00:24:44;19.90;44.00
66708;DHT22;53622;0.000;0.000;2022-12-18T00:27:13;19.90;44.00
66708;DHT22;53622;0.000;0.000;2022-12-18T00:29:42;19.90;44.00
66708;DHT22;53622;0.000;0.000;2022-12-18T00:32:13;19.90;44.00
66708;DHT22;53622;0.000;0.000;2022-12-18T00:34:42;19.80;44.00
66708;DHT22;53622;0.000;0.000;2022-12-18T00:37:11;19.80;43.90
66708;DHT22;53622;0.000;0.000;2022-12-18T00:39:50;19.80;43.90
66708;DHT22;53622;0.000;0.000;2022-12-18T00:42:20;19.80;44.00
66708;DHT22;53622;0.000;0.000;2022-12-18T00:45:07;19.80;44.00
66708;DHT22;53622;0.000;0.000;2022-12-18T00:47:41;19.70;44.00
66708;DHT22;53622;0.000;0.000;2022-12-18T00:50:11;19.70;44.00
66708;DHT22;53622;0.000;0.000;2022-12-18T00:52:41;19.70;44.00
66708;DHT22;53622;0.000;0.000;2022-12-18T00:55:11;19.70;44.00
66708;DHT22;53622;0.000;0.000;2022-12-18T00:57:40;19.70;44.10
66708;DHT22;53622;0.000;0.000;2022-12-18T01:00:12;19.60;44.00
66708;DHT22;53622;0.000;0.000;2022-12-18T01:02:43;19.70;44.00
66708;DHT22;53622;0.000;0.000;2022-12-18T01:05:13;19.60;44.10
66708;DHT22;53622;0.000;0.000;2022-12-18T01:07:43;19.60;44.00
66708;DHT22;53622;0.000;0.000;2022-12-18T01:10:12;19.60;44.00
66708;DHT22;53622;0.000;0.000;2022-12-18T01:12:42;19.60;44.00
66708;DHT22;53622;0.000;0.000;2022-12-18T01:15:13;19.60;44.00
66708;DHT22;53622;0.000;0.000;2022-12-18T01:17:44;19.60;44.10
66708;DHT22;53622;0.000;0.000;2022-12-18T01:20:14;19.60;44.10
66708;DHT22;53622;0.000;0.000;2022-12-18T01:22:43;19.60;44.10
66708;DHT22;53622;0.000;0.000;2022-12-18T01:25:12;19.50;44.00
66708;DHT22;53622;0.000;0.000;2022-12-18T01:27:43;19.50;44.00
66708;DHT22;53622;0.000;0.000;2022-12-18T01:30:13;19.50;44.10
66708;DHT22;53622;0.000;0.000;2022-12-18T01:32:43;19.50;44.00
66708;DHT22;53622;0.000;0.000;2022-12-18T01:35:13;19.50;44.00
66708;DHT22;53622;0.000;0.000;2022-12-18T01:37:42;19.50;44.00
66708;DHT22;53622;0.000;0.000;2022-12-18T01:40:11;19.40;44.00
66708;DHT22;53622;0.000;0.000;2022-12-18T01:42:40;19.40;44.00
66708;DHT22;53622;0.000;0.000;2022-12-18T01:45:25;19.40;44.00
66708;DHT22;53622;0.000;0.000;2022-12-18T01:47:59;19.40;44.00
66708;DHT22;53622;0.000;0.000;2022-12-18T01:50:33;19.40;44.10
66708;DHT22;53622;0.000;0.000;2022-12-18T01:53:06;19.40;44.10
66708;DHT22;53622;0.000;0.000;2022-12-18T01:55:38;19.40;44.20
66708;DHT22;53622;0.000;0.000;2022-12-18T01:58:10;19.40;44.10
66708;DHT22;53622;0.000;0.000;2022-12-18T02:00:39;19.40;44.10
66708;DHT22;53622;0.000;0.000;2022-12-18T02:03:10;19.30;44.10
66708;DHT22;53622;0.000;0.000;2022-12-18T02:05:44;19.30;44.00
66708;DHT22;53622;0.000;0.000;2022-12-18T02:08:19;19.30;44.00
66708;DHT22;53622;0.000;0.000;2022-12-18T02:10:57;19.30;44.00
66708;DHT22;53622;0.000;0.000;2022-12-18T02:13:38;19.30;44.00
66708;DHT22;53622;0.000;0.000;2022-12-18T02:16:19;19.30;44.10
66708;DHT22;53622;0.000;0.000;2022-12-18T02:18:57;19.30;44.10
66708;DHT22;53622;0.000;0.000;2022-12-18T02:21:34;19.30;44.10
66708;DHT22;53622;0.000;0.000;2022-12-18T02:24:18;19.20;44.00
66708;DHT22;53622;0.000;0.000;2022-12-18T02:26:56;19.20;44.10
66708;DHT22;53622;0.000;0.000;2022-12-18T02:29:33;19.20;44.00
66708;DHT22;53622;0.000;0.000;2022-12-18T02:32:06;19.20;44.00
66708;DHT22;53622;0.000;0.000;2022-12-18T02:34:39;19.20;44.00
66708;DHT22;53622;0.000;0.000;2022-12-18T02:37:16;19.10;44.00
66708;DHT22;53622;0.000;0.000;2022-12-18T02:39:49;19.10;44.00
66708;DHT22;53622;0.000;0.000;2022-12-18T02:42:20;19.10;44.00
66708;DHT22;53622;0.000;0.000;2022-12-18T02:44:52;19.10;44.00
66708;DHT22;53622;0.000;0.000;2022-12-18T02:47:26;19.10;44.00
66708;DHT22;53622;0.000;0.000;2022-12-18T02:50:02;19.10;44.00
66708;DHT22;53622;0.000;0.000;2022-12-18T02:52:39;19.10;44.00
66708;DHT22;53622;0.000;0.000;2022-12-18T02:55:19;19.10;44.00
66708;DHT22;53622;0.000;0.000;2022-12-18T02:57:57;19.10;44.00
66708;DHT22;53622;0.000;0.000;2022-12-18T03:00:37;19.00;44.00
66708;DHT22;53622;0.000;0.000;2022-12-18T03:03:11;19.00;44.00
66708;DHT22;53622;0.000;0.000;2022-12-18T03:05:47;19.00;44.00
66708;DHT22;53622;0.000;0.000;2022-12-18T03:08:21;19.00;44.00
66708;DHT22;53622;0.000;0.000;2022-12-18T03:10:55;19.00;44.00
66708;DHT22;53622;0.000;0.000;2022-12-18T03:13:34;19.00;44.00
66708;DHT22;53622;0.000;0.000;2022-12-18T03:16:09;19.00;44.00
66708;DHT22;53622;0.000;0.000;2022-12-18T03:18:45;18.90;44.00
66708;DHT22;53622;0.000;0.000;2022-12-18T03:21:16;18.90;44.00
66708;DHT22;53622;0.000;0.000;2022-12-18T03:23:49;18.90;44.00
66708;DHT22;53622;0.000;0.000;2022-12-18T03:26:25;18.90;44.00
66708;DHT22;53622;0.000;0.000;2022-12-18T03:29:04;18.90;44.00
66708;DHT22;53622;0.000;0.000;2022-12-18T03:31:37;18.90;44.00
66708;DHT22;53622;0.000;0.000;2022-12-18T03:34:11;18.80;43.90
66708;DHT22;53622;0.000;0.000;2022-12-18T03:36:45;18.90;44.00
66708;DHT22;53622;0.000;0.000;2022-12-18T03:39:15;18.80;43.90
66708;DHT22;53622;0.000;0.000;2022-12-18T03:42:00;18.90;44.00
66708;DHT22;53622;0.000;0.000;2022-12-18T03:44:41;18.80;43.90
66708;DHT22;53622;0.000;0.000;2022-12-18T03:47:16;18.80;44.00
66708;DHT22;53622;0.000;0.000;2022-12-18T03:49:49;18.80;44.00
66708;DHT22;53622;0.000;0.000;2022-12-18T03:52:25;18.80;44.10
66708;DHT22;53622;0.000;0.000;2022-12-18T03:54:58;18.80;44.10
66708;DHT22;53622;0.000;0.000;2022-12-18T03:57:30;18.70;44.10
66708;DHT22;53622;0.000;0.000;2022-12-18T04:00:06;18.70;44.20
66708;DHT22;53622;0.000;0.000;2022-12-18T04:02:56;18.70;44.20
66708;DHT22;53622;0.000;0.000;2022-12-18T04:05:34;18.70;44.20
66708;DHT22;53622;0.000;0.000;2022-12-18T04:08:06;18.70;44.20
66708;DHT22;53622;0.000;0.000;2022-12-18T04:10:39;18.70;44.20
66708;DHT22;53622;0.000;0.000;2022-12-18T04:13:09;18.70;44.20
66708;DHT22;53622;0.000;0.000;2022-12-18T04:15:40;18.60;44.10
66708;DHT22;53622;0.000;0.000;2022-12-18T04:18:14;18.70;44.20
66708;DHT22;53622;0.000;0.000;2022-12-18T04:20:44;18.60;44.20
66708;DHT22;53622;0.000;0.000;2022-12-18T04:23:13;18.60;44.20
66708;DHT22;53622;0.000;0.000;2022-12-18T04:25:42;18.60;44.10
66708;DHT22;53622;0.000;0.000;2022-12-18T04:28:17;18.60;44.10
66708;DHT22;53622;0.000;0.000;2022-12-18T04:30:49;18.60;44.80
66708;DHT22;53622;0.000;0.000;2022-12-18T04:33:20;18.60;44.10
66708;DHT22;53622;0.000;0.000;2022-12-18T04:35:49;18.50;44.10
66708;DHT22;53622;0.000;0.000;2022-12-18T04:38:19;18.50;44.10
66708;DHT22;53622;0.000;0.000;2022-12-18T04:40:55;18.50;44.10
66708;DHT22;53622;0.000;0.000;2022-12-18T04:43:26;18.50;44.10
66708;DHT22;53622;0.000;0.000;2022-12-18T04:46:03;18.50;44.10
66708;DHT22;53622;0.000;0.000;2022-12-18T04:48:33;18.50;44.10
66708;DHT22;53622;0.000;0.000;2022-12-18T04:51:03;18.50;44.10
66708;DHT22;53622;0.000;0.000;2022-12-18T04:53:35;18.50;44.10
66708;DHT22;53622;0.000;0.000;2022-12-18T04:56:07;18.50;44.10
66708;DHT22;53622;0.000;0.000;2022-12-18T04:58:36;18.40;44.00
66708;DHT22;53622;0.000;0.000;2022-12-18T05:01:08;18.50;44.00
66708;DHT22;53622;0.000;0.000;2022-12-18T05:03:38;18.40;44.00
66708;DHT22;53622;0.000;0.000;2022-12-18T05:06:08;18.50;44.00
66708;DHT22;53622;0.000;0.000;2022-12-18T05:08:37;18.40;44.00
66708;DHT22;53622;0.000;0.000;2022-12-18T05:11:09;18.40;44.00
66708;DHT22;53622;0.000;0.000;2022-12-18T05:13:39;18.40;44.00
66708;DHT22;53622;0.000;0.000;2022-12-18T05:16:10;18.40;44.00
66708;DHT22;53622;0.000;0.000;2022-12-18T05:18:40;18.40;44.00
66708;DHT22;53622;0.000;0.000;2022-12-18T05:21:09;18.40;44.00
66708;DHT22;53622;0.000;0.000;2022-12-18T05:23:39;18.40;44.00
66708;DHT22;53622;0.000;0.000;2022-12-18T05:26:09;18.40;44.00
66708;DHT22;53622;0.000;0.000;2022-12-18T05:28:43;18.40;44.00
66708;DHT22;53622;0.000;0.000;2022-12-18T05:31:14;18.30;44.00
66708;DHT22;53622;0.000;0.000;2022-12-18T05:33:43;18.30;44.00
66708;DHT22;53622;0.000;0.000;2022-12-18T05:36:12;18.30;44.00
66708;DHT22;53622;0.000;0.000;2022-12-18T05:38:42;18.30;44.00
66708;DHT22;53622;0.000;0.000;2022-12-18T05:41:11;18.30;44.00
66708;DHT22;53622;0.000;0.000;2022-12-18T05:43:40;18.30;44.00
66708;DHT22;53622;0.000;0.000;2022-12-18T05:46:14;18.30;44.00
66708;DHT22;53622;0.000;0.000;2022-12-18T05:48:44;18.30;44.00
66708;DHT22;53622;0.000;0.000;2022-12-18T05:51:15;18.20;44.00
66708;DHT22;53622;0.000;0.000;2022-12-18T05:53:45;18.20;44.00
66708;DHT22;53622;0.000;0.000;2022-12-18T05:56:18;18.20;44.00
66708;DHT22;53622;0.000;0.000;2022-12-18T05:58:51;18.20;44.00
66708;DHT22;53622;0.000;0.000;2022-12-18T06:01:24;18.20;44.00
66708;DHT22;53622;0.000;0.000;2022-12-18T06:03:55;18.20;44.00
66708;DHT22;53622;0.000;0.000;2022-12-18T06:06:25;18.20;44.00
66708;DHT22;53622;0.000;0.000;2022-12-18T06:08:55;18.20;44.00
66708;DHT22;53622;0.000;0.000;2022-12-18T06:11:26;18.20;44.00
66708;DHT22;53622;0.000;0.000;2022-12-18T06:13:56;18.10;43.90
66708;DHT22;53622;0.000;0.000;2022-12-18T06:16:29;18.10;43.90
66708;DHT22;53622;0.000;0.000;2022-12-18T06:18:59;18.10;43.90
66708;DHT22;53622;0.000;0.000;2022-12-18T06:21:29;18.10;43.90
66708;DHT22;53622;0.000;0.000;2022-12-18T06:24:00;18.10;43.90
66708;DHT22;53622;0.000;0.000;2022-12-18T06:26:29;18.10;43.90
66708;DHT22;53622;0.000;0.000;2022-12-18T06:28:59;18.10;43.90
66708;DHT22;53622;0.000;0.000;2022-12-18T06:31:29;18.10;43.90
66708;DHT22;53622;0.000;0.000;2022-12-18T06:34:02;18.10;43.90
66708;DHT22;53622;0.000;0.000;2022-12-18T06:36:31;18.00;43.80
66708;DHT22;53622;0.000;0.000;2022-12-18T06:39:00;18.10;43.90
66708;DHT22;53622;0.000;0.000;2022-12-18T06:41:30;18.00;43.80
66708;DHT22;53622;0.000;0.000;2022-12-18T06:43:59;18.00;43.90
66708;DHT22;53622;0.000;0.000;2022-12-18T06:46:29;18.00;43.90
66708;DHT22;53622;0.000;0.000;2022-12-18T06:48:59;18.00;43.90
66708;DHT22;53622;0.000;0.000;2022-12-18T06:51:29;18.00;44.00
66708;DHT22;53622;0.000;0.000;2022-12-18T06:53:58;18.00;43.90
66708;DHT22;53622;0.000;0.000;2022-12-18T06:56:27;18.00;44.00
66708;DHT22;53622;0.000;0.000;2022-12-18T06:58:57;18.00;44.00
66708;DHT22;53622;0.000;0.000;2022-12-18T07:01:26;18.00;44.20
66708;DHT22;53622;0.000;0.000;2022-12-18T07:03:57;18.00;44.10
66708;DHT22;53622;0.000;0.000;2022-12-18T07:06:27;18.00;44.10
66708;DHT22;53622;0.000;0.000;2022-12-18T07:08:56;17.90;44.10
66708;DHT22;53622;0.000;0.000;2022-12-18T07:11:25;18.00;44.10
66708;DHT22;53622;0.000;0.000;2022-12-18T07:13:54;17.90;44.10
66708;DHT22;53622;0.000;0.000;2022-12-18T07:16:24;17.90;44.20
66708;DHT22;53622;0.000;0.000;2022-12-18T07:18:54;17.90;44.20
66708;DHT22;53622;0.000;0.000;2022-12-18T07:21:25;17.90;44.20
66708;DHT22;53622;0.000;0.000;2022-12-18T07:23:55;17.90;44.30
66708;DHT22;53622;0.000;0.000;2022-12-18T07:26:24;17.90;44.40
66708;DHT22;53622;0.000;0.000;2022-12-18T07:28:55;17.90;44.40
66708;DHT22;53622;0.000;0.000;2022-12-18T07:31:26;17.90;44.50
66708;DHT22;53622;0.000;0.000;2022-12-18T07:33:56;17.90;44.50
66708;DHT22;53622;0.000;0.000;2022-12-18T07:36:26;17.90;44.50
66708;DHT22;53622;0.000;0.000;2022-12-18T07:38:56;17.90;44.70
66708;DHT22;53622;0.000;0.000;2022-12-18T07:41:25;17.90;44.60
66708;DHT22;53622;0.000;0.000;2022-12-18T07:43:54;17.90;44.70
66708;DHT22;53622;0.000;0.000;2022-12-18T07:46:24;17.90;44.70
66708;DHT22;53622;0.000;0.000;2022-12-18T07:48:53;17.90;44.80
66708;DHT22;53622;0.000;0.000;2022-12-18T07:51:22;17.90;44.80
66708;DHT22;53622;0.000;0.000;2022-12-18T07:53:53;17.80;44.80
66708;DHT22;53622;0.000;0.000;2022-12-18T07:56:22;17.80;44.80
66708;DHT22;53622;0.000;0.000;2022-12-18T07:58:57;17.80;44.80
66708;DHT22;53622;0.000;0.000;2022-12-18T08:01:27;17.80;44.90
66708;DHT22;53622;0.000;0.000;2022-12-18T08:03:57;17.80;44.90
66708;DHT22;53622;0.000;0.000;2022-12-18T08:06:26;17.80;44.80
66708;DHT22;53622;0.000;0.000;2022-12-18T08:08:57;17.80;44.90
66708;DHT22;53622;0.000;0.000;2022-12-18T08:11:28;17.80;44.90
66708;DHT22;53622;0.000;0.000;2022-12-18T08:13:57;17.80;44.90
66708;DHT22;53622;0.000;0.000;2022-12-18T08:16:27;17.80;44.80
66708;DHT22;53622;0.000;0.000;2022-12-18T08:18:56;17.80;44.70
66708;DHT22;53622;0.000;0.000;2022-12-18T08:21:28;17.80;44.80
66708;DHT22;53622;0.000;0.000;2022-12-18T08:24:00;17.70;43.30
66708;DHT22;53622;0.000;0.000;2022-12-18T08:26:30;17.70;43.90
66708;DHT22;53622;0.000;0.000;2022-12-18T08:29:00;17.70;44.60
66708;DHT22;53622;0.000;0.000;2022-12-18T08:31:30;17.70;44.60
66708;DHT22;53622;0.000;0.000;2022-12-18T08:34:00;17.80;44.70
66708;DHT22;53622;0.000;0.000;2022-12-18T08:36:30;17.90;44.70
66708;DHT22;53622;0.000;0.000;2022-12-18T08:39:01;17.90;44.80
66708;DHT22;53622;0.000;0.000;2022-12-18T08:41:30;18.00;44.80
66708;DHT22;53622;0.000;0.000;2022-12-18T08:44:00;18.00;44.80
66708;DHT22;53622;0.000;0.000;2022-12-18T08:46:47;18.10;44.80
66708;DHT22;53622;0.000;0.000;2022-12-18T08:49:16;18.10;44.90
66708;DHT22;53622;0.000;0.000;2022-12-18T08:51:46;18.20;45.00
66708;DHT22;53622;0.000;0.000;2022-12-18T08:54:16;18.20;45.00
66708;DHT22;53622;0.000;0.000;2022-12-18T08:56:46;18.30;45.10
66708;DHT22;53622;0.000;0.000;2022-12-18T08:59:15;18.30;45.20
66708;DHT22;53622;0.000;0.000;2022-12-18T09:01:47;18.40;45.40
66708;DHT22;53622;0.000;0.000;2022-12-18T09:04:17;18.40;45.90
66708;DHT22;53622;0.000;0.000;2022-12-18T09:06:46;18.50;45.90
66708;DHT22;53622;0.000;0.000;2022-12-18T09:09:17;18.50;46.50
66708;DHT22;53622;0.000;0.000;2022-12-18T09:11:47;18.60;47.30
66708;DHT22;53622;0.000;0.000;2022-12-18T09:14:16;18.70;47.40
66708;DHT22;53622;0.000;0.000;2022-12-18T09:16:45;18.70;47.30
66708;DHT22;53622;0.000;0.000;2022-12-18T09:19:15;18.80;47.60
66708;DHT22;53622;0.000;0.000;2022-12-18T09:21:44;18.80;47.70
66708;DHT22;53622;0.000;0.000;2022-12-18T09:24:17;18.90;47.80
66708;DHT22;53622;0.000;0.000;2022-12-18T09:26:46;18.90;47.50
66708;DHT22;53622;0.000;0.000;2022-12-18T09:29:20;19.00;47.30
66708;DHT22;53622;0.000;0.000;2022-12-18T09:31:49;19.00;47.40
66708;DHT22;53622;0.000;0.000;2022-12-18T09:34:19;19.00;47.50
66708;DHT22;53622;0.000;0.000;2022-12-18T09:36:49;19.00;47.30
66708;DHT22;53622;0.000;0.000;2022-12-18T09:39:20;19.10;47.70
66708;DHT22;53622;0.000;0.000;2022-12-18T09:41:52;19.10;47.60
66708;DHT22;53622;0.000;0.000;2022-12-18T09:44:25;19.20;47.60
66708;DHT22;53622;0.000;0.000;2022-12-18T09:47:02;19.20;47.40
66708;DHT22;53622;0.000;0.000;2022-12-18T09:49:35;19.30;47.40
66708;DHT22;53622;0.000;0.000;2022-12-18T09:52:11;19.40;47.30
66708;DHT22;53622;0.000;0.000;2022-12-18T09:54:45;19.40;47.10
66708;DHT22;53622;0.000;0.000;2022-12-18T09:57:18;19.40;46.80
66708;DHT22;53622;0.000;0.000;2022-12-18T09:59:53;19.50;46.90
66708;DHT22;53622;0.000;0.000;2022-12-18T10:02:25;19.50;47.00
66708;DHT22;53622;0.000;0.000;2022-12-18T10:05:03;19.60;46.90
66708;DHT22;53622;0.000;0.000;2022-12-18T10:07:41;19.60;46.80
66708;DHT22;53622;0.000;0.000;2022-12-18T10:10:22;19.70;46.80
66708;DHT22;53622;0.000;0.000;2022-12-18T10:12:58;19.70;46.70
66708;DHT22;53622;0.000;0.000;2022-12-18T10:15:36;19.70;46.70
66708;DHT22;53622;0.000;0.000;2022-12-18T10:18:21;19.80;46.60
66708;DHT22;53622;0.000;0.000;2022-12-18T10:20:56;19.80;46.60
66708;DHT22;53622;0.000;0.000;2022-12-18T10:23:33;19.80;46.50
66708;DHT22;53622;0.000;0.000;2022-12-18T10:26:14;19.90;46.50
66708;DHT22;53622;0.000;0.000;2022-12-18T10:28:44;19.90;46.40
66708;DHT22;53622;0.000;0.000;2022-12-18T10:31:16;20.00;46.20
66708;DHT22;53622;0.000;0.000;2022-12-18T10:33:46;20.00;46.10
66708;DHT22;53622;0.000;0.000;2022-12-18T10:36:15;20.10;46.40
66708;DHT22;53622;0.000;0.000;2022-12-18T10:38:45;20.10;46.80
66708;DHT22;53622;0.000;0.000;2022-12-18T10:41:26;20.10;46.80
66708;DHT22;53622;0.000;0.000;2022-12-18T10:44:15;20.20;47.60
66708;DHT22;53622;0.000;0.000;2022-12-18T10:46:46;20.20;48.00
66708;DHT22;53622;0.000;0.000;2022-12-18T10:49:23;20.20;47.50
66708;DHT22;53622;0.000;0.000;2022-12-18T10:52:05;20.30;47.20
66708;DHT22;53622;0.000;0.000;2022-12-18T10:54:35;20.30;47.20
66708;DHT22;53622;0.000;0.000;2022-12-18T10:57:17;20.30;47.30
66708;DHT22;53622;0.000;0.000;2022-12-18T10:59:57;20.30;47.20
66708;DHT22;53622;0.000;0.000;2022-12-18T11:02:34;20.30;46.90
66708;DHT22;53622;0.000;0.000;2022-12-18T11:05:23;20.30;46.90
66708;DHT22;53622;0.000;0.000;2022-12-18T11:07:55;20.30;46.80
66708;DHT22;53622;0.000;0.000;2022-12-18T11:10:29;20.30;46.70
66708;DHT22;53622;0.000;0.000;2022-12-18T11:13:11;20.30;46.60
66708;DHT22;53622;0.000;0.000;2022-12-18T11:15:41;20.30;46.50
66708;DHT22;53622;0.000;0.000;2022-12-18T11:18:17;20.30;46.50
66708;DHT22;53622;0.000;0.000;2022-12-18T11:20:53;20.30;46.40
66708;DHT22;53622;0.000;0.000;2022-12-18T11:23:26;20.20;46.10
66708;DHT22;53622;0.000;0.000;2022-12-18T11:25:59;20.20;46.20
66708;DHT22;53622;0.000;0.000;2022-12-18T11:28:42;20.20;46.30
66708;DHT22;53622;0.000;0.000;2022-12-18T11:31:21;20.30;46.80
66708;DHT22;53622;0.000;0.000;2022-12-18T11:34:01;20.20;45.90
66708;DHT22;53622;0.000;0.000;2022-12-18T11:36:52;20.10;45.40
66708;DHT22;53622;0.000;0.000;2022-12-18T11:39:27;20.10;45.90
66708;DHT22;53622;0.000;0.000;2022-12-18T11:42:01;20.20;46.10
66708;DHT22;53622;0.000;0.000;2022-12-18T11:44:46;20.20;46.30
66708;DHT22;53622;0.000;0.000;2022-12-18T11:47:25;20.20;46.60
66708;DHT22;53622;0.000;0.000;2022-12-18T11:50:01;20.20;46.60
66708;DHT22;53622;0.000;0.000;2022-12-18T11:52:34;20.30;47.30
66708;DHT22;53622;0.000;0.000;2022-12-18T11:55:12;20.30;47.60
66708;DHT22;53622;0.000;0.000;2022-12-18T11:57:49;20.30;47.50
66708;DHT22;53622;0.000;0.000;2022-12-18T12:00:24;20.30;47.70
66708;DHT22;53622;0.000;0.000;2022-12-18T12:06:01;20.40;48.00
66708;DHT22;53622;0.000;0.000;2022-12-18T12:08:43;20.40;47.80
66708;DHT22;53622;0.000;0.000;2022-12-18T12:11:20;20.50;48.00
66708;DHT22;53622;0.000;0.000;2022-12-18T12:14:02;20.50;47.50
66708;DHT22;53622;0.000;0.000;2022-12-18T12:16:39;20.50;47.20
66708;DHT22;53622;0.000;0.000;2022-12-18T12:19:24;20.60;47.70
66708;DHT22;53622;0.000;0.000;2022-12-18T12:22:05;20.60;47.50
66708;DHT22;53622;0.000;0.000;2022-12-18T12:24:49;20.60;48.40
66708;DHT22;53622;0.000;0.000;2022-12-18T12:27:28;20.70;48.80
66708;DHT22;53622;0.000;0.000;2022-12-18T12:30:04;20.70;48.80
66708;DHT22;53622;0.000;0.000;2022-12-18T12:32:50;20.70;48.50
66708;DHT22;53622;0.000;0.000;2022-12-18T12:35:32;20.80;48.30
66708;DHT22;53622;0.000;0.000;2022-12-18T12:38:10;20.80;48.70
66708;DHT22;53622;0.000;0.000;2022-12-18T12:40:46;20.90;49.40
66708;DHT22;53622;0.000;0.000;2022-12-18T12:43:33;20.90;49.10
66708;DHT22;53622;0.000;0.000;2022-12-18T12:46:05;20.90;48.70
66708;DHT22;53622;0.000;0.000;2022-12-18T12:48:46;20.90;48.70
66708;DHT22;53622;0.000;0.000;2022-12-18T12:51:18;20.90;48.50
66708;DHT22;53622;0.000;0.000;2022-12-18T12:53:48;21.00;48.50
66708;DHT22;53622;0.000;0.000;2022-12-18T12:56:20;20.90;48.40
66708;DHT22;53622;0.000;0.000;2022-12-18T12:58:57;20.90;48.40
66708;DHT22;53622;0.000;0.000;2022-12-18T13:01:33;20.90;48.20
66708;DHT22;53622;0.000;0.000;2022-12-18T13:04:15;20.90;48.70
66708;DHT22;53622;0.000;0.000;2022-12-18T13:06:53;20.90;48.40
66708;DHT22;53622;0.000;0.000;2022-12-18T13:09:30;20.90;48.40
66708;DHT22;53622;0.000;0.000;2022-12-18T13:12:04;21.00;48.80
66708;DHT22;53622;0.000;0.000;2022-12-18T13:15:12;21.00;48.00
66708;DHT22;53622;0.000;0.000;2022-12-18T13:17:43;21.00;48.40
66708;DHT22;53622;0.000;0.000;2022-12-18T13:20:15;21.00;48.00
66708;DHT22;53622;0.000;0.000;2022-12-18T13:22:46;21.00;48.00
66708;DHT22;53622;0.000;0.000;2022-12-18T13:25:34;21.00;48.00
66708;DHT22;53622;0.000;0.000;2022-12-18T13:28:06;21.00;48.60
66708;DHT22;53622;0.000;0.000;2022-12-18T13:30:52;21.00;48.40
66708;DHT22;53622;0.000;0.000;2022-12-18T13:33:49;21.00;48.60
66708;DHT22;53622;0.000;0.000;2022-12-18T13:36:40;21.00;48.40
66708;DHT22;53622;0.000;0.000;2022-12-18T13:42:39;21.00;48.20
66708;DHT22;53622;0.000;0.000;2022-12-18T13:45:43;21.00;48.20
66708;DHT22;53622;0.000;0.000;2022-12-18T13:48:16;21.00;48.30
66708;DHT22;53622;0.000;0.000;2022-12-18T13:50:49;20.90;46.90
66708;DHT22;53622;0.000;0.000;2022-12-18T13:53:25;20.90;46.80
66708;DHT22;53622;0.000;0.000;2022-12-18T13:55:55;20.80;46.60
66708;DHT22;53622;0.000;0.000;2022-12-18T13:58:25;20.80;47.80
66708;DHT22;53622;0.000;0.000;2022-12-18T14:00:54;20.80;47.00
66708;DHT22;53622;0.000;0.000;2022-12-18T14:03:26;20.80;47.60
66708;DHT22;53622;0.000;0.000;2022-12-18T14:06:00;20.90;47.60
66708;DHT22;53622;0.000;0.000;2022-12-18T14:08:37;20.80;47.70
66708;DHT22;53622;0.000;0.000;2022-12-18T14:11:17;20.80;47.70
66708;DHT22;53622;0.000;0.000;2022-12-18T14:13:49;20.90;47.90
66708;DHT22;53622;0.000;0.000;2022-12-18T14:16:19;20.90;47.90
66708;DHT22;53622;0.000;0.000;2022-12-18T14:18:53;20.90;47.70
66708;DHT22;53622;0.000;0.000;2022-12-18T14:21:46;20.90;47.60
66708;DHT22;53622;0.000;0.000;2022-12-18T14:24:18;20.90;47.60
66708;DHT22;53622;0.000;0.000;2022-12-18T14:26:49;20.90;47.70
66708;DHT22;53622;0.000;0.000;2022-12-18T14:29:22;20.90;47.70
66708;DHT22;53622;0.000;0.000;2022-12-18T14:32:05;21.00;47.50
66708;DHT22;53622;0.000;0.000;2022-12-18T14:34:44;21.00;47.50
66708;DHT22;53622;0.000;0.000;2022-12-18T14:37:15;21.00;47.40
66708;DHT22;53622;0.000;0.000;2022-12-18T14:40:00;21.00;47.50
66708;DHT22;53622;0.000;0.000;2022-12-18T14:42:38;21.00;47.70
66708;DHT22;53622;0.000;0.000;2022-12-18T14:45:32;21.00;47.70
66708;DHT22;53622;0.000;0.000;2022-12-18T14:48:14;21.10;47.70
66708;DHT22;53622;0.000;0.000;2022-12-18T14:51:01;21.10;47.70
66708;DHT22;53622;0.000;0.000;2022-12-18T14:53:36;21.10;47.80
66708;DHT22;53622;0.000;0.000;2022-12-18T14:56:20;21.10;47.60
66708;DHT22;53622;0.000;0.000;2022-12-18T14:58:53;21.10;47.40
66708;DHT22;53622;0.000;0.000;2022-12-18T15:01:25;21.10;47.40
66708;DHT22;53622;0.000;0.000;2022-12-18T15:03:57;21.20;47.40
66708;DHT22;53622;0.000;0.000;2022-12-18T15:06:30;21.20;47.10
66708;DHT22;53622;0.000;0.000;2022-12-18T15:09:02;21.20;47.10
66708;DHT22;53622;0.000;0.000;2022-12-18T15:11:42;21.20;47.10
66708;DHT22;53622;0.000;0.000;2022-12-18T15:14:35;21.20;47.10
66708;DHT22;53622;0.000;0.000;2022-12-18T15:17:17;21.20;47.10
66708;DHT22;53622;0.000;0.000;2022-12-18T15:19:51;21.20;47.00
66708;DHT22;53622;0.000;0.000;2022-12-18T15:22:25;21.20;47.10
66708;DHT22;53622;0.000;0.000;2022-12-18T15:24:55;21.30;47.10
66708;DHT22;53622;0.000;0.000;2022-12-18T15:27:30;21.30;47.00
66708;DHT22;53622;0.000;0.000;2022-12-18T15:30:02;21.30;46.90
66708;DHT22;53622;0.000;0.000;2022-12-18T15:32:32;21.30;47.00
66708;DHT22;53622;0.000;0.000;2022-12-18T15:35:07;21.30;47.50
66708;DHT22;53622;0.000;0.000;2022-12-18T15:37:41;21.30;46.80
66708;DHT22;53622;0.000;0.000;2022-12-18T15:40:16;21.30;46.80
66708;DHT22;53622;0.000;0.000;2022-12-18T15:42:50;21.30;46.80
66708;DHT22;53622;0.000;0.000;2022-12-18T15:45:38;21.30;46.80
66708;DHT22;53622;0.000;0.000;2022-12-18T15:48:18;21.30;47.00
66708;DHT22;53622;0.000;0.000;2022-12-18T15:50:50;21.30;46.90
66708;DHT22;53622;0.000;0.000;2022-12-18T15:53:20;21.30;46.70
66708;DHT22;53622;0.000;0.000;2022-12-18T15:55:49;21.30;46.60
66708;DHT22;53622;0.000;0.000;2022-12-18T15:58:39;21.30;46.50
66708;DHT22;53622;0.000;0.000;2022-12-18T16:01:09;21.30;46.40
66708;DHT22;53622;0.000;0.000;2022-12-18T16:03:40;21.20;46.30
66708;DHT22;53622;0.000;0.000;2022-12-18T16:06:10;21.30;46.20
66708;DHT22;53622;0.000;0.000;2022-12-18T16:08:39;21.30;46.20
66708;DHT22;53622;0.000;0.000;2022-12-18T16:11:20;21.30;46.10
66708;DHT22;53622;0.000;0.000;2022-12-18T16:14:15;21.30;46.20
66708;DHT22;53622;0.000;0.000;2022-12-18T16:16:45;21.30;46.20
66708;DHT22;53622;0.000;0.000;2022-12-18T16:19:15;21.40;46.50
66708;DHT22;53622;0.000;0.000;2022-12-18T16:21:46;21.40;47.40
66708;DHT22;53622;0.000;0.000;2022-12-18T16:24:16;21.40;47.40
66708;DHT22;53622;0.000;0.000;2022-12-18T16:26:46;21.40;47.20
66708;DHT22;53622;0.000;0.000;2022-12-18T16:29:17;21.40;47.60
66708;DHT22;53622;0.000;0.000;2022-12-18T16:31:47;21.50;47.60
66708;DHT22;53622;0.000;0.000;2022-12-18T16:34:19;21.40;47.70